sensor_id;sensor_type;location;lat;lon;timestamp;pressure;altitude;pressure_sealevel;temperature
65316;BMP280;51920;53.952;10.292;2023-06-10T00:02:00;101584.31;;;13.94
65316;BMP280;51920;53.952;10.292;2023-06-10T00:04:27;101587.41;;;13.85
65316;BMP280;51920;53.952;10.292;2023-06-10T00:06:54;101587.84;;;13.91
65316;BMP280;51920;53.952;10.292;2023-06-10T00:09:21;101577.75;;;13.99
65316;BMP280;51920;53.952;10.292;2023-06-10T00:11:49;101582.47;;;14.05
65316;BMP280;51920;53.952;10.292;2023-06-10T00:14:16;101573.09;;;14.03
65316;BMP280;51920;53.952;10.292;2023-06-10T00:16:43;101569.91;;;13.90
65316;BMP280;51920;53.952;10.292;2023-06-10T00:19:11;101568.41;;;14.00
65316;BMP280;51920;53.952;10.292;2023-06-10T00:21:40;101569.91;;;13.93
65316;BMP280;51920;53.952;10.292;2023-06-10T00:24:08;101563.75;;;14.04
65316;BMP280;51920;53.952;10.292;2023-06-10T00:26:39;101567.59;;;13.92
65316;BMP280;51920;53.952;10.292;2023-06-10T00:29:07;101567.97;;;13.90
65316;BMP280;51920;53.952;10.292;2023-06-10T00:31:35;101562.16;;;13.92
65316;BMP280;51920;53.952;10.292;2023-06-10T00:34:02;101569.91;;;13.86
65316;BMP280;51920;53.952;10.292;2023-06-10T00:36:30;101566.41;;;13.86
65316;BMP280;51920;53.952;10.292;2023-06-10T00:38:57;101564.47;;;13.93
65316;BMP280;51920;53.952;10.292;2023-06-10T00:41:24;101567.59;;;13.92
65316;BMP280;51920;53.952;10.292;2023-06-10T00:43:52;101563.72;;;14.00
65316;BMP280;51920;53.952;10.292;2023-06-10T00:46:21;101566.88;;;14.09
65316;BMP280;51920;53.952;10.292;2023-06-10T00:48:48;101565.34;;;14.08
65316;BMP280;51920;53.952;10.292;2023-06-10T00:51:16;101565.34;;;14.05
65316;BMP280;51920;53.952;10.292;2023-06-10T00:53:43;101563.78;;;14.11
65316;BMP280;51920;53.952;10.292;2023-06-10T00:56:10;101563.03;;;14.14
65316;BMP280;51920;53.952;10.292;2023-06-10T00:58:37;101563.81;;;14.22
65316;BMP280;51920;53.952;10.292;2023-06-10T01:01:04;101566.97;;;14.24
65316;BMP280;51920;53.952;10.292;2023-06-10T01:03:31;101563.47;;;14.30
65316;BMP280;51920;53.952;10.292;2023-06-10T01:08:41;101564.66;;;14.40
65316;BMP280;51920;53.952;10.292;2023-06-10T01:11:16;101560.00;;;14.44
65316;BMP280;51920;53.952;10.292;2023-06-10T01:13:45;101570.91;;;14.41
65316;BMP280;51920;53.952;10.292;2023-06-10T01:16:12;101561.94;;;14.36
65316;BMP280;51920;53.952;10.292;2023-06-10T01:18:40;101571.69;;;14.45
65316;BMP280;51920;53.952;10.292;2023-06-10T01:21:07;101565.44;;;14.33
65316;BMP280;51920;53.952;10.292;2023-06-10T01:23:34;101564.25;;;14.38
65316;BMP280;51920;53.952;10.292;2023-06-10T01:26:04;101565.47;;;14.48
65316;BMP280;51920;53.952;10.292;2023-06-10T01:28:36;101572.47;;;14.42
65316;BMP280;51920;53.952;10.292;2023-06-10T01:31:15;101569.75;;;14.49
65316;BMP280;51920;53.952;10.292;2023-06-10T01:33:50;101568.94;;;14.45
65316;BMP280;51920;53.952;10.292;2023-06-10T01:36:19;101576.34;;;14.37
65316;BMP280;51920;53.952;10.292;2023-06-10T01:38:47;101561.56;;;14.42
65316;BMP280;51920;53.952;10.292;2023-06-10T01:41:16;101568.56;;;14.39
65316;BMP280;51920;53.952;10.292;2023-06-10T01:43:44;101575.59;;;14.44
65316;BMP280;51920;53.952;10.292;2023-06-10T01:46:13;101572.84;;;14.44
65316;BMP280;51920;53.952;10.292;2023-06-10T01:48:41;101577.13;;;14.45
65316;BMP280;51920;53.952;10.292;2023-06-10T01:51:08;101567.81;;;14.42
65316;BMP280;51920;53.952;10.292;2023-06-10T01:53:35;101566.22;;;14.41
65316;BMP280;51920;53.952;10.292;2023-06-10T01:56:02;101571.31;;;14.53
65316;BMP280;51920;53.952;10.292;2023-06-10T01:58:29;101571.66;;;14.37
65316;BMP280;51920;53.952;10.292;2023-06-10T02:00:55;101575.16;;;14.34
65316;BMP280;51920;53.952;10.292;2023-06-10T02:03:22;101573.66;;;14.48
65316;BMP280;51920;53.952;10.292;2023-06-10T02:05:49;101563.91;;;14.47
65316;BMP280;51920;53.952;10.292;2023-06-10T02:08:16;101565.84;;;14.35
65316;BMP280;51920;53.952;10.292;2023-06-10T02:10:42;101566.97;;;14.34
65316;BMP280;51920;53.952;10.292;2023-06-10T02:13:09;101570.94;;;14.55
65316;BMP280;51920;53.952;10.292;2023-06-10T02:15:36;101570.16;;;14.47
65316;BMP280;51920;53.952;10.292;2023-06-10T02:18:02;101581.06;;;14.47
65316;BMP280;51920;53.952;10.292;2023-06-10T02:20:29;101580.22;;;14.39
65316;BMP280;51920;53.952;10.292;2023-06-10T02:22:56;101575.94;;;14.31
65316;BMP280;51920;53.952;10.292;2023-06-10T02:25:23;101577.50;;;14.39
65316;BMP280;51920;53.952;10.292;2023-06-10T02:27:50;101579.09;;;14.44
65316;BMP280;51920;53.952;10.292;2023-06-10T02:30:17;101579.06;;;14.33
65316;BMP280;51920;53.952;10.292;2023-06-10T02:32:44;101568.16;;;14.30
65316;BMP280;51920;53.952;10.292;2023-06-10T02:35:15;101573.63;;;14.41
65316;BMP280;51920;53.952;10.292;2023-06-10T02:37:42;101569.75;;;14.49
65316;BMP280;51920;53.952;10.292;2023-06-10T02:40:09;101564.66;;;14.40
65316;BMP280;51920;53.952;10.292;2023-06-10T02:42:37;101570.94;;;14.48
65316;BMP280;51920;53.952;10.292;2023-06-10T02:45:05;101574.00;;;14.39
65316;BMP280;51920;53.952;10.292;2023-06-10T02:47:37;101569.72;;;14.34
65316;BMP280;51920;53.952;10.292;2023-06-10T02:50:05;101571.31;;;14.50
65316;BMP280;51920;53.952;10.292;2023-06-10T02:52:38;101573.63;;;14.44
65316;BMP280;51920;53.952;10.292;2023-06-10T02:55:05;101572.09;;;14.54
65316;BMP280;51920;53.952;10.292;2023-06-10T02:57:32;101577.94;;;14.56
65316;BMP280;51920;53.952;10.292;2023-06-10T03:00:01;101578.34;;;14.51
65316;BMP280;51920;53.952;10.292;2023-06-10T03:02:30;101584.13;;;14.38
65316;BMP280;51920;53.952;10.292;2023-06-10T03:04:58;101585.69;;;14.39
65316;BMP280;51920;53.952;10.292;2023-06-10T03:07:25;101580.22;;;14.39
65316;BMP280;51920;53.952;10.292;2023-06-10T03:09:53;101581.78;;;14.37
65316;BMP280;51920;53.952;10.292;2023-06-10T03:12:19;101581.41;;;14.38
65316;BMP280;51920;53.952;10.292;2023-06-10T03:14:47;101579.44;;;14.32
65316;BMP280;51920;53.952;10.292;2023-06-10T03:17:15;101584.16;;;14.42
65316;BMP280;51920;53.952;10.292;2023-06-10T03:19:43;101579.84;;;14.30
65316;BMP280;51920;53.952;10.292;2023-06-10T03:22:12;101584.06;;;14.21
65316;BMP280;51920;53.952;10.292;2023-06-10T03:24:59;101579.44;;;14.28
65316;BMP280;51920;53.952;10.292;2023-06-10T03:27:27;101576.28;;;14.19
65316;BMP280;51920;53.952;10.292;2023-06-10T03:29:58;101571.63;;;14.23
65316;BMP280;51920;53.952;10.292;2023-06-10T03:32:26;101573.56;;;14.19
65316;BMP280;51920;53.952;10.292;2023-06-10T03:34:53;101575.47;;;14.15
65316;BMP280;51920;53.952;10.292;2023-06-10T03:37:25;101580.91;;;14.15
65316;BMP280;51920;53.952;10.292;2023-06-10T03:39:52;101579.00;;;14.19
65316;BMP280;51920;53.952;10.292;2023-06-10T03:42:19;101588.72;;;14.20
65316;BMP280;51920;53.952;10.292;2023-06-10T03:44:46;101584.13;;;14.24
65316;BMP280;51920;53.952;10.292;2023-06-10T03:47:12;101586.41;;;14.22
65316;BMP280;51920;53.952;10.292;2023-06-10T03:49:39;101583.34;;;14.38
65316;BMP280;51920;53.952;10.292;2023-06-10T03:52:07;101585.72;;;14.50
65316;BMP280;51920;53.952;10.292;2023-06-10T03:54:33;101588.81;;;14.42
65316;BMP280;51920;53.952;10.292;2023-06-10T03:57:02;101591.91;;;14.36
65316;BMP280;51920;53.952;10.292;2023-06-10T03:59:29;101576.69;;;14.25
65316;BMP280;51920;53.952;10.292;2023-06-10T04:01:56;101577.84;;;14.31
65316;BMP280;51920;53.952;10.292;2023-06-10T04:04:23;101579.41;;;14.17
65316;BMP280;51920;53.952;10.292;2023-06-10T04:06:50;101581.31;;;14.17
65316;BMP280;51920;53.952;10.292;2023-06-10T04:09:17;101588.75;;;14.27
65316;BMP280;51920;53.952;10.292;2023-06-10T04:11:43;101588.75;;;14.27
65316;BMP280;51920;53.952;10.292;2023-06-10T04:14:10;101587.97;;;14.23
65316;BMP280;51920;53.952;10.292;2023-06-10T04:16:39;101596.56;;;14.32
65316;BMP280;51920;53.952;10.292;2023-06-10T04:19:05;101595.00;;;14.31
65316;BMP280;51920;53.952;10.292;2023-06-10T04:21:32;101595.41;;;14.37
65316;BMP280;51920;53.952;10.292;2023-06-10T04:23:59;101601.28;;;14.43
65316;BMP280;51920;53.952;10.292;2023-06-10T04:26:26;101597.41;;;14.51
65316;BMP280;51920;53.952;10.292;2023-06-10T04:28:54;101595.47;;;14.51
65316;BMP280;51920;53.952;10.292;2023-06-10T04:31:21;101593.13;;;14.53
65316;BMP280;51920;53.952;10.292;2023-06-10T04:33:48;101574.47;;;14.70
65316;BMP280;51920;53.952;10.292;2023-06-10T04:36:15;101578.72;;;14.56
65316;BMP280;51920;53.952;10.292;2023-06-10T04:38:41;101570.97;;;14.66
65316;BMP280;51920;53.952;10.292;2023-06-10T04:41:08;101580.31;;;14.75
65316;BMP280;51920;53.952;10.292;2023-06-10T04:43:36;101583.47;;;14.85
65316;BMP280;51920;53.952;10.292;2023-06-10T04:46:03;101583.84;;;15.15
65316;BMP280;51920;53.952;10.292;2023-06-10T04:48:31;101583.47;;;15.24
65316;BMP280;51920;53.952;10.292;2023-06-10T04:51:02;101575.25;;;15.38
65316;BMP280;51920;53.952;10.292;2023-06-10T04:53:29;101578.34;;;15.44
65316;BMP280;51920;53.952;10.292;2023-06-10T04:55:56;101584.59;;;15.48
65316;BMP280;51920;53.952;10.292;2023-06-10T04:58:23;101582.25;;;15.57
65316;BMP280;51920;53.952;10.292;2023-06-10T05:00:50;101582.59;;;15.74
65316;BMP280;51920;53.952;10.292;2023-06-10T05:03:17;101576.31;;;15.91
65316;BMP280;51920;53.952;10.292;2023-06-10T05:05:43;101583.63;;;16.12
65316;BMP280;51920;53.952;10.292;2023-06-10T05:08:10;101584.72;;;16.29
65316;BMP280;51920;53.952;10.292;2023-06-10T05:10:37;101577.72;;;16.17
65316;BMP280;51920;53.952;10.292;2023-06-10T05:13:04;101592.47;;;16.41
65316;BMP280;51920;53.952;10.292;2023-06-10T05:15:30;101588.97;;;16.33
65316;BMP280;51920;53.952;10.292;2023-06-10T05:17:57;101586.19;;;16.48
65316;BMP280;51920;53.952;10.292;2023-06-10T05:20:28;101586.03;;;16.66
65316;BMP280;51920;53.952;10.292;2023-06-10T05:22:55;101601.03;;;16.43
65316;BMP280;51920;53.952;10.292;2023-06-10T05:25:22;101591.66;;;16.48
65316;BMP280;51920;53.952;10.292;2023-06-10T05:27:49;101592.94;;;16.25
65316;BMP280;51920;53.952;10.292;2023-06-10T05:30:15;101588.25;;;16.26
65316;BMP280;51920;53.952;10.292;2023-06-10T05:32:45;101598.72;;;16.34
65316;BMP280;51920;53.952;10.292;2023-06-10T05:35:11;101586.31;;;16.23
65316;BMP280;51920;53.952;10.292;2023-06-10T05:37:38;101585.34;;;16.54
65316;BMP280;51920;53.952;10.292;2023-06-10T05:40:05;101590.91;;;16.40
65316;BMP280;51920;53.952;10.292;2023-06-10T05:42:32;101586.50;;;16.53
65316;BMP280;51920;53.952;10.292;2023-06-10T05:44:59;101589.19;;;16.61
65316;BMP280;51920;53.952;10.292;2023-06-10T05:47:26;101590.66;;;16.76
65316;BMP280;51920;53.952;10.292;2023-06-10T05:49:53;101592.97;;;16.81
65316;BMP280;51920;53.952;10.292;2023-06-10T05:52:20;101582.56;;;16.62
65316;BMP280;51920;53.952;10.292;2023-06-10T05:54:46;101578.06;;;16.86
65316;BMP280;51920;53.952;10.292;2023-06-10T05:57:13;101582.09;;;16.70
65316;BMP280;51920;53.952;10.292;2023-06-10T05:59:40;101574.72;;;16.67
65316;BMP280;51920;53.952;10.292;2023-06-10T06:02:06;101576.63;;;16.74
65316;BMP280;51920;53.952;10.292;2023-06-10T06:04:34;101577.38;;;16.78
65316;BMP280;51920;53.952;10.292;2023-06-10T06:07:00;101579.28;;;16.85
65316;BMP280;51920;53.952;10.292;2023-06-10T06:09:27;101575.75;;;16.84
65316;BMP280;51920;53.952;10.292;2023-06-10T06:11:54;101582.72;;;16.92
65316;BMP280;51920;53.952;10.292;2023-06-10T06:14:20;101577.97;;;16.96
65316;BMP280;51920;53.952;10.292;2023-06-10T06:16:47;101588.19;;;16.92
65316;BMP280;51920;53.952;10.292;2023-06-10T06:19:13;101566.00;;;16.83
65316;BMP280;51920;53.952;10.292;2023-06-10T06:21:40;101584.97;;;17.05
65316;BMP280;51920;53.952;10.292;2023-06-10T06:24:07;101569.72;;;17.03
65316;BMP280;51920;53.952;10.292;2023-06-10T06:26:34;101584.34;;;17.28
65316;BMP280;51920;53.952;10.292;2023-06-10T06:29:00;101569.97;;;17.20
65316;BMP280;51920;53.952;10.292;2023-06-10T06:31:27;101574.44;;;17.41
65316;BMP280;51920;53.952;10.292;2023-06-10T06:33:54;101578.97;;;17.55
65316;BMP280;51920;53.952;10.292;2023-06-10T06:36:21;101580.41;;;17.66
65316;BMP280;51920;53.952;10.292;2023-06-10T06:38:47;101564.91;;;17.53
65316;BMP280;51920;53.952;10.292;2023-06-10T06:41:14;101559.34;;;17.60
65316;BMP280;51920;53.952;10.292;2023-06-10T06:43:40;101573.25;;;17.76
65316;BMP280;51920;53.952;10.292;2023-06-10T06:46:15;101574.72;;;17.84
65316;BMP280;51920;53.952;10.292;2023-06-10T06:48:43;101577.44;;;18.15
65316;BMP280;51920;53.952;10.292;2023-06-10T06:51:10;101583.72;;;18.43
65316;BMP280;51920;53.952;10.292;2023-06-10T06:53:36;101584.94;;;18.65
65316;BMP280;51920;53.952;10.292;2023-06-10T06:56:03;101580.25;;;18.39
65316;BMP280;51920;53.952;10.292;2023-06-10T06:58:30;101590.91;;;18.06
65316;BMP280;51920;53.952;10.292;2023-06-10T07:00:57;101598.63;;;18.11
65316;BMP280;51920;53.952;10.292;2023-06-10T07:03:24;101601.75;;;18.13
65316;BMP280;51920;53.952;10.292;2023-06-10T07:05:51;101601.06;;;18.63
65316;BMP280;51920;53.952;10.292;2023-06-10T07:08:18;101599.84;;;18.64
65316;BMP280;51920;53.952;10.292;2023-06-10T07:10:44;101610.44;;;18.39
65316;BMP280;51920;53.952;10.292;2023-06-10T07:13:11;101604.66;;;18.29
65316;BMP280;51920;53.952;10.292;2023-06-10T07:15:39;101607.56;;;18.46
65316;BMP280;51920;53.952;10.292;2023-06-10T07:18:06;101616.97;;;18.45
65316;BMP280;51920;53.952;10.292;2023-06-10T07:20:33;101613.97;;;18.39
65316;BMP280;51920;53.952;10.292;2023-06-10T07:23:00;101615.66;;;18.80
65316;BMP280;51920;53.952;10.292;2023-06-10T07:25:28;101611.53;;;19.59
65316;BMP280;51920;53.952;10.292;2023-06-10T07:27:54;101615.69;;;20.03
65316;BMP280;51920;53.952;10.292;2023-06-10T07:30:21;101619.25;;;20.53
65316;BMP280;51920;53.952;10.292;2023-06-10T07:32:48;101634.50;;;20.74
65316;BMP280;51920;53.952;10.292;2023-06-10T07:35:15;101622.09;;;20.66
65316;BMP280;51920;53.952;10.292;2023-06-10T07:37:42;101625.38;;;20.28
65316;BMP280;51920;53.952;10.292;2023-06-10T07:40:09;101619.75;;;20.97
65316;BMP280;51920;53.952;10.292;2023-06-10T07:42:35;101621.75;;;20.80
65316;BMP280;51920;53.952;10.292;2023-06-10T07:45:03;101612.97;;;21.43
65316;BMP280;51920;53.952;10.292;2023-06-10T07:47:32;101623.72;;;21.79
65316;BMP280;51920;53.952;10.292;2023-06-10T07:50:00;101622.69;;;21.61
65316;BMP280;51920;53.952;10.292;2023-06-10T07:52:27;101611.91;;;21.66
65316;BMP280;51920;53.952;10.292;2023-06-10T07:54:55;101620.84;;;21.70
65316;BMP280;51920;53.952;10.292;2023-06-10T07:57:21;101606.88;;;21.90
65316;BMP280;51920;53.952;10.292;2023-06-10T07:59:48;101599.59;;;21.96
65316;BMP280;51920;53.952;10.292;2023-06-10T08:02:15;101614.91;;;21.30
65316;BMP280;51920;53.952;10.292;2023-06-10T08:04:42;101612.72;;;21.08
65316;BMP280;51920;53.952;10.292;2023-06-10T08:07:08;101616.25;;;21.80
65316;BMP280;51920;53.952;10.292;2023-06-10T08:09:35;101614.16;;;22.10
65316;BMP280;51920;53.952;10.292;2023-06-10T08:12:02;101612.28;;;21.94
65316;BMP280;51920;53.952;10.292;2023-06-10T08:14:29;101608.28;;;22.08
65316;BMP280;51920;53.952;10.292;2023-06-10T08:16:56;101606.63;;;21.85
65316;BMP280;51920;53.952;10.292;2023-06-10T08:19:23;101603.66;;;21.92
65316;BMP280;51920;53.952;10.292;2023-06-10T08:21:49;101601.75;;;22.27
65316;BMP280;51920;53.952;10.292;2023-06-10T08:24:16;101615.47;;;22.18
65316;BMP280;51920;53.952;10.292;2023-06-10T08:26:45;101611.59;;;22.76
65316;BMP280;51920;53.952;10.292;2023-06-10T08:29:12;101618.63;;;23.11
65316;BMP280;51920;53.952;10.292;2023-06-10T08:31:43;101609.03;;;23.25
65316;BMP280;51920;53.952;10.292;2023-06-10T08:34:10;101617.56;;;23.62
65316;BMP280;51920;53.952;10.292;2023-06-10T08:36:36;101620.84;;;23.48
65316;BMP280;51920;53.952;10.292;2023-06-10T08:39:03;101614.38;;;23.73
65316;BMP280;51920;53.952;10.292;2023-06-10T08:41:35;101606.78;;;22.89
65316;BMP280;51920;53.952;10.292;2023-06-10T08:44:08;101602.94;;;22.86
65316;BMP280;51920;53.952;10.292;2023-06-10T08:46:36;101593.06;;;22.98
65316;BMP280;51920;53.952;10.292;2023-06-10T08:49:05;101615.91;;;22.99
65316;BMP280;51920;53.952;10.292;2023-06-10T08:51:35;101621.63;;;23.26
65316;BMP280;51920;53.952;10.292;2023-06-10T08:54:14;101613.00;;;22.80
65316;BMP280;51920;53.952;10.292;2023-06-10T08:56:42;101622.47;;;22.44
65316;BMP280;51920;53.952;10.292;2023-06-10T08:59:10;101617.41;;;22.90
65316;BMP280;51920;53.952;10.292;2023-06-10T09:01:37;101622.13;;;23.25
65316;BMP280;51920;53.952;10.292;2023-06-10T09:04:05;101608.28;;;22.68
65316;BMP280;51920;53.952;10.292;2023-06-10T09:06:32;101623.97;;;22.71
65316;BMP280;51920;53.952;10.292;2023-06-10T09:09:00;101615.78;;;23.24
65316;BMP280;51920;53.952;10.292;2023-06-10T09:11:28;101614.31;;;23.63
65316;BMP280;51920;53.952;10.292;2023-06-10T09:13:55;101620.91;;;23.57
65316;BMP280;51920;53.952;10.292;2023-06-10T09:16:22;101616.03;;;23.70
65316;BMP280;51920;53.952;10.292;2023-06-10T09:18:49;101623.59;;;23.48
65316;BMP280;51920;53.952;10.292;2023-06-10T09:21:24;101618.44;;;23.99
65316;BMP280;51920;53.952;10.292;2023-06-10T09:23:52;101604.03;;;23.64
65316;BMP280;51920;53.952;10.292;2023-06-10T09:26:18;101601.56;;;23.66
65316;BMP280;51920;53.952;10.292;2023-06-10T09:28:48;101614.19;;;23.67
65316;BMP280;51920;53.952;10.292;2023-06-10T09:31:16;101606.78;;;23.11
65316;BMP280;51920;53.952;10.292;2023-06-10T09:33:48;101604.03;;;23.11
65316;BMP280;51920;53.952;10.292;2023-06-10T09:36:23;101613.47;;;23.01
65316;BMP280;51920;53.952;10.292;2023-06-10T09:38:50;101606.53;;;23.18
65316;BMP280;51920;53.952;10.292;2023-06-10T09:41:17;101606.53;;;22.96
65316;BMP280;51920;53.952;10.292;2023-06-10T09:43:45;101616.22;;;23.44
65316;BMP280;51920;53.952;10.292;2023-06-10T09:46:16;101613.16;;;23.20
65316;BMP280;51920;53.952;10.292;2023-06-10T09:48:45;101613.06;;;23.33
65316;BMP280;51920;53.952;10.292;2023-06-10T09:51:13;101613.53;;;23.10
65316;BMP280;51920;53.952;10.292;2023-06-10T09:53:40;101609.66;;;23.51
65316;BMP280;51920;53.952;10.292;2023-06-10T09:56:07;101613.56;;;22.75
65316;BMP280;51920;53.952;10.292;2023-06-10T09:58:38;101607.69;;;22.86
65316;BMP280;51920;53.952;10.292;2023-06-10T10:01:10;101608.19;;;23.37
65316;BMP280;51920;53.952;10.292;2023-06-10T10:03:47;101604.66;;;23.77
65316;BMP280;51920;53.952;10.292;2023-06-10T10:06:15;101609.28;;;23.71
65316;BMP280;51920;53.952;10.292;2023-06-10T10:08:42;101606.25;;;23.47
65316;BMP280;51920;53.952;10.292;2023-06-10T10:11:10;101604.25;;;23.48
65316;BMP280;51920;53.952;10.292;2023-06-10T10:13:38;101610.81;;;23.72
65316;BMP280;51920;53.952;10.292;2023-06-10T10:16:15;101616.72;;;24.42
65316;BMP280;51920;53.952;10.292;2023-06-10T10:18:54;101628.72;;;24.57
65316;BMP280;51920;53.952;10.292;2023-06-10T10:21:28;101617.00;;;24.72
65316;BMP280;51920;53.952;10.292;2023-06-10T10:24:09;101625.75;;;24.33
65316;BMP280;51920;53.952;10.292;2023-06-10T10:26:39;101616.47;;;24.18
65316;BMP280;51920;53.952;10.292;2023-06-10T10:29:30;101623.13;;;24.21
65316;BMP280;51920;53.952;10.292;2023-06-10T10:31:59;101625.72;;;24.15
65316;BMP280;51920;53.952;10.292;2023-06-10T10:34:36;101621.13;;;24.30
65316;BMP280;51920;53.952;10.292;2023-06-10T10:37:03;101623.84;;;23.62
65316;BMP280;51920;53.952;10.292;2023-06-10T10:39:30;101628.44;;;23.97
65316;BMP280;51920;53.952;10.292;2023-06-10T10:41:59;101618.00;;;24.01
65316;BMP280;51920;53.952;10.292;2023-06-10T10:44:27;101620.94;;;24.06
65316;BMP280;51920;53.952;10.292;2023-06-10T10:46:54;101615.53;;;24.03
65316;BMP280;51920;53.952;10.292;2023-06-10T10:49:22;101625.09;;;24.11
65316;BMP280;51920;53.952;10.292;2023-06-10T10:52:00;101623.84;;;24.03
65316;BMP280;51920;53.952;10.292;2023-06-10T10:54:35;101618.63;;;24.14
65316;BMP280;51920;53.952;10.292;2023-06-10T10:59:59;101619.50;;;23.92
65316;BMP280;51920;53.952;10.292;2023-06-10T11:02:41;101608.66;;;23.67
65316;BMP280;51920;53.952;10.292;2023-06-10T11:05:11;101614.81;;;23.71
65316;BMP280;51920;53.952;10.292;2023-06-10T11:07:38;101618.84;;;23.79
65316;BMP280;51920;53.952;10.292;2023-06-10T11:10:12;101631.47;;;23.89
65316;BMP280;51920;53.952;10.292;2023-06-10T11:15:13;101630.09;;;23.85
65316;BMP280;51920;53.952;10.292;2023-06-10T11:23:30;101616.72;;;23.83
65316;BMP280;51920;53.952;10.292;2023-06-10T11:29:04;101621.88;;;23.72
65316;BMP280;51920;53.952;10.292;2023-06-10T11:31:38;101628.13;;;24.04
65316;BMP280;51920;53.952;10.292;2023-06-10T11:34:06;101623.81;;;23.94
65316;BMP280;51920;53.952;10.292;2023-06-10T11:36:36;101620.19;;;24.06
65316;BMP280;51920;53.952;10.292;2023-06-10T11:39:05;101622.88;;;23.87
65316;BMP280;51920;53.952;10.292;2023-06-10T11:41:33;101617.28;;;23.69
65316;BMP280;51920;53.952;10.292;2023-06-10T11:44:08;101620.75;;;23.60
65316;BMP280;51920;53.952;10.292;2023-06-10T11:46:35;101608.13;;;23.50
65316;BMP280;51920;53.952;10.292;2023-06-10T11:49:02;101611.94;;;23.84
65316;BMP280;51920;53.952;10.292;2023-06-10T11:51:40;101608.47;;;24.02
65316;BMP280;51920;53.952;10.292;2023-06-10T11:54:09;101600.81;;;23.65
65316;BMP280;51920;53.952;10.292;2023-06-10T11:56:36;101607.63;;;23.42
65316;BMP280;51920;53.952;10.292;2023-06-10T11:59:06;101602.94;;;23.30
65316;BMP280;51920;53.952;10.292;2023-06-10T12:01:37;101614.72;;;23.53
65316;BMP280;51920;53.952;10.292;2023-06-10T12:04:08;101598.44;;;23.55
65316;BMP280;51920;53.952;10.292;2023-06-10T12:06:49;101607.72;;;23.70
65316;BMP280;51920;53.952;10.292;2023-06-10T12:09:24;101608.41;;;23.52
65316;BMP280;51920;53.952;10.292;2023-06-10T12:11:58;101601.97;;;23.55
65316;BMP280;51920;53.952;10.292;2023-06-10T12:14:54;101607.03;;;23.48
65316;BMP280;51920;53.952;10.292;2023-06-10T12:17:35;101598.84;;;23.75
65316;BMP280;51920;53.952;10.292;2023-06-10T12:20:05;101617.19;;;23.91
65316;BMP280;51920;53.952;10.292;2023-06-10T12:22:40;101609.19;;;23.93
65316;BMP280;51920;53.952;10.292;2023-06-10T12:25:08;101607.22;;;24.03
65316;BMP280;51920;53.952;10.292;2023-06-10T12:27:38;101599.34;;;23.83
65316;BMP280;51920;53.952;10.292;2023-06-10T12:30:06;101600.75;;;23.87
65316;BMP280;51920;53.952;10.292;2023-06-10T12:32:44;101590.00;;;23.99
65316;BMP280;51920;53.952;10.292;2023-06-10T12:35:13;101596.00;;;23.97
65316;BMP280;51920;53.952;10.292;2023-06-10T12:37:41;101592.78;;;23.99
65316;BMP280;51920;53.952;10.292;2023-06-10T12:40:09;101604.13;;;23.91
65316;BMP280;51920;53.952;10.292;2023-06-10T12:42:36;101596.22;;;23.72
65316;BMP280;51920;53.952;10.292;2023-06-10T12:45:04;101586.19;;;23.65
65316;BMP280;51920;53.952;10.292;2023-06-10T12:47:35;101579.31;;;23.70
65316;BMP280;51920;53.952;10.292;2023-06-10T12:50:05;101592.69;;;23.71
65316;BMP280;51920;53.952;10.292;2023-06-10T12:52:32;101587.78;;;23.75
65316;BMP280;51920;53.952;10.292;2023-06-10T12:54:59;101583.91;;;23.63
65316;BMP280;51920;53.952;10.292;2023-06-10T12:57:27;101593.69;;;23.86
65316;BMP280;51920;53.952;10.292;2023-06-10T12:59:54;101581.03;;;23.85
65316;BMP280;51920;53.952;10.292;2023-06-10T13:02:23;101585.66;;;23.88
65316;BMP280;51920;53.952;10.292;2023-06-10T13:04:50;101585.38;;;23.96
65316;BMP280;51920;53.952;10.292;2023-06-10T13:07:17;101575.22;;;23.92
65316;BMP280;51920;53.952;10.292;2023-06-10T13:09:44;101582.63;;;24.14
65316;BMP280;51920;53.952;10.292;2023-06-10T13:12:11;101578.69;;;24.24
65316;BMP280;51920;53.952;10.292;2023-06-10T13:14:41;101578.69;;;24.33
65316;BMP280;51920;53.952;10.292;2023-06-10T13:17:08;101583.91;;;24.41
65316;BMP280;51920;53.952;10.292;2023-06-10T13:19:35;101575.75;;;24.19
65316;BMP280;51920;53.952;10.292;2023-06-10T13:22:01;101580.69;;;24.33
65316;BMP280;51920;53.952;10.292;2023-06-10T13:24:28;101579.28;;;24.28
65316;BMP280;51920;53.952;10.292;2023-06-10T13:26:55;101581.91;;;24.23
65316;BMP280;51920;53.952;10.292;2023-06-10T13:29:22;101576.81;;;24.12
65316;BMP280;51920;53.952;10.292;2023-06-10T13:31:49;101579.69;;;23.99
65316;BMP280;51920;53.952;10.292;2023-06-10T13:34:16;101577.53;;;24.03
65316;BMP280;51920;53.952;10.292;2023-06-10T13:36:52;101559.53;;;23.80
65316;BMP280;51920;53.952;10.292;2023-06-10T13:39:19;101553.31;;;23.67
65316;BMP280;51920;53.952;10.292;2023-06-10T13:41:53;101559.78;;;23.64
65316;BMP280;51920;53.952;10.292;2023-06-10T13:44:47;101556.47;;;23.56
65316;BMP280;51920;53.952;10.292;2023-06-10T13:47:15;101569.28;;;23.63
65316;BMP280;51920;53.952;10.292;2023-06-10T13:49:41;101556.84;;;23.67
65316;BMP280;51920;53.952;10.292;2023-06-10T13:52:08;101561.59;;;23.58
65316;BMP280;51920;53.952;10.292;2023-06-10T13:54:35;101555.13;;;23.61
65316;BMP280;51920;53.952;10.292;2023-06-10T13:57:05;101558.69;;;23.61
65316;BMP280;51920;53.952;10.292;2023-06-10T13:59:31;101554.66;;;23.62
65316;BMP280;51920;53.952;10.292;2023-06-10T14:01:58;101551.03;;;23.65
65316;BMP280;51920;53.952;10.292;2023-06-10T14:04:25;101560.31;;;23.50
65316;BMP280;51920;53.952;10.292;2023-06-10T14:06:51;101546.13;;;23.38
65316;BMP280;51920;53.952;10.292;2023-06-10T14:09:18;101551.19;;;23.40